sensor_id;sensor_type;location;lat;lon;timestamp;pressure;altitude;pressure_sealevel;temperature;humidity
52923;BME280;38796;42.702;23.306;2022-08-03T00:01:15;95276.31;;;19.06;64.12
52923;BME280;38796;42.702;23.306;2022-08-03T00:03:14;95274.56;;;19.13;63.67
52923;BME280;38796;42.702;23.306;2022-08-03T00:05:12;95274.41;;;19.15;63.64
52923;BME280;38796;42.702;23.306;2022-08-03T00:07:10;95284.06;;;19.16;63.47
52923;BME280;38796;42.702;23.306;2022-08-03T00:09:10;95277.69;;;19.17;63.92
52923;BME280;38796;42.702;23.306;2022-08-03T00:11:08;95266.94;;;19.10;64.21
52923;BME280;38796;42.702;23.306;2022-08-03T00:13:08;95267.03;;;19.02;64.64
52923;BME280;38796;42.702;23.306;2022-08-03T00:15:06;95273.31;;;18.94;64.76
52923;BME280;38796;42.702;23.306;2022-08-03T00:17:10;95273.41;;;18.86;64.80
52923;BME280;38796;42.702;23.306;2022-08-03T00:19:09;95274.97;;;18.81;65.19
52923;BME280;38796;42.702;23.306;2022-08-03T00:21:07;95270.75;;;18.86;64.52
52923;BME280;38796;42.702;23.306;2022-08-03T00:23:06;95278.09;;;18.84;64.88
52923;BME280;38796;42.702;23.306;2022-08-03T00:25:05;95271.13;;;18.83;65.18
52923;BME280;38796;42.702;23.306;2022-08-03T00:27:03;95273.41;;;18.86;65.22
52923;BME280;38796;42.702;23.306;2022-08-03T00:29:03;95275.16;;;18.94;64.85
52923;BME280;38796;42.702;23.306;2022-08-03T00:31:02;95276.25;;;19.00;65.29
52923;BME280;38796;42.702;23.306;2022-08-03T00:33:00;95265.19;;;19.03;65.27
52923;BME280;38796;42.702;23.306;2022-08-03T00:34:59;95267.69;;;19.04;65.38
52923;BME280;38796;42.702;23.306;2022-08-03T00:37:07;95264.50;;;18.94;65.82
52923;BME280;38796;42.702;23.306;2022-08-03T00:39:05;95271.94;;;18.84;66.18
52923;BME280;38796;42.702;23.306;2022-08-03T00:41:03;95266.88;;;18.89;66.36
52923;BME280;38796;42.702;23.306;2022-08-03T00:43:04;95266.75;;;19.12;65.50
52923;BME280;38796;42.702;23.306;2022-08-03T00:45:05;95267.94;;;19.09;65.71
52923;BME280;38796;42.702;23.306;2022-08-03T00:47:03;95261.06;;;19.00;66.08
52923;BME280;38796;42.702;23.306;2022-08-03T00:49:01;95264.84;;;18.91;66.72
52923;BME280;38796;42.702;23.306;2022-08-03T00:51:00;95271.13;;;18.83;67.00
52923;BME280;38796;42.702;23.306;2022-08-03T00:52:58;95267.78;;;18.96;66.58
52923;BME280;38796;42.702;23.306;2022-08-03T00:54:57;95269.50;;;19.04;66.26
52923;BME280;38796;42.702;23.306;2022-08-03T00:56:55;95268.16;;;19.08;65.78
52923;BME280;38796;42.702;23.306;2022-08-03T00:58:56;95275.75;;;19.11;65.81
52923;BME280;38796;42.702;23.306;2022-08-03T01:00:57;95266.75;;;19.12;65.90
52923;BME280;38796;42.702;23.306;2022-08-03T01:02:55;95273.53;;;19.14;65.60
52923;BME280;38796;42.702;23.306;2022-08-03T01:04:54;95270.00;;;19.29;64.89
52923;BME280;38796;42.702;23.306;2022-08-03T01:06:59;95265.91;;;19.26;64.90
52923;BME280;38796;42.702;23.306;2022-08-03T01:09:03;95268.66;;;19.18;65.14
52923;BME280;38796;42.702;23.306;2022-08-03T01:11:12;95261.34;;;19.05;65.54
52923;BME280;38796;42.702;23.306;2022-08-03T01:13:20;95265.03;;;18.89;66.24
52923;BME280;38796;42.702;23.306;2022-08-03T01:15:44;95256.97;;;18.83;66.27
52923;BME280;38796;42.702;23.306;2022-08-03T01:17:52;95266.31;;;18.79;66.44
52923;BME280;38796;42.702;23.306;2022-08-03T01:19:57;95258.72;;;18.76;66.45
52923;BME280;38796;42.702;23.306;2022-08-03T01:22:08;95259.13;;;18.64;66.99
52923;BME280;38796;42.702;23.306;2022-08-03T01:24:18;95265.09;;;18.66;67.18
52923;BME280;38796;42.702;23.306;2022-08-03T01:26:36;95260.78;;;18.65;67.24
52923;BME280;38796;42.702;23.306;2022-08-03T01:29:03;95256.09;;;18.67;67.10
52923;BME280;38796;42.702;23.306;2022-08-03T01:31:07;95256.44;;;18.64;67.18
52923;BME280;38796;42.702;23.306;2022-08-03T01:33:12;95265.38;;;18.57;67.81
52923;BME280;38796;42.702;23.306;2022-08-03T01:35:15;95266.94;;;18.51;68.10
52923;BME280;38796;42.702;23.306;2022-08-03T01:37:25;95264.19;;;18.59;67.90
52923;BME280;38796;42.702;23.306;2022-08-03T01:39:25;95262.72;;;18.57;68.08
52923;BME280;38796;42.702;23.306;2022-08-03T01:41:29;95265.31;;;18.50;68.42
52923;BME280;38796;42.702;23.306;2022-08-03T01:43:29;95256.28;;;18.21;69.53
52923;BME280;38796;42.702;23.306;2022-08-03T01:45:48;95263.38;;;18.06;70.34
52923;BME280;38796;42.702;23.306;2022-08-03T01:47:48;95271.47;;;17.98;70.50
52923;BME280;38796;42.702;23.306;2022-08-03T01:49:47;95267.78;;;17.99;70.66
52923;BME280;38796;42.702;23.306;2022-08-03T01:51:47;95272.47;;;17.97;70.69
52923;BME280;38796;42.702;23.306;2022-08-03T01:54:01;95265.53;;;17.88;71.01
52923;BME280;38796;42.702;23.306;2022-08-03T01:56:01;95262.59;;;17.83;71.19
52923;BME280;38796;42.702;23.306;2022-08-03T01:58:02;95262.97;;;17.80;71.36
52923;BME280;38796;42.702;23.306;2022-08-03T02:00:05;95257.47;;;17.73;71.70
52923;BME280;38796;42.702;23.306;2022-08-03T02:02:11;95265.34;;;17.66;72.12
52923;BME280;38796;42.702;23.306;2022-08-03T02:04:31;95260.22;;;17.65;72.05
52923;BME280;38796;42.702;23.306;2022-08-03T02:06:32;95271.56;;;17.59;72.38
52923;BME280;38796;42.702;23.306;2022-08-03T02:08:52;95266.53;;;17.41;73.48
52923;BME280;38796;42.702;23.306;2022-08-03T02:10:54;95268.28;;;17.25;73.92
52923;BME280;38796;42.702;23.306;2022-08-03T02:12:54;95269.31;;;17.24;74.38
52923;BME280;38796;42.702;23.306;2022-08-03T02:14:55;95263.88;;;17.41;73.62
52923;BME280;38796;42.702;23.306;2022-08-03T02:16:57;95259.16;;;17.51;73.22
52923;BME280;38796;42.702;23.306;2022-08-03T02:18:56;95261.13;;;17.49;73.17
52923;BME280;38796;42.702;23.306;2022-08-03T02:20:57;95271.78;;;17.49;73.33
52923;BME280;38796;42.702;23.306;2022-08-03T02:23:06;95259.03;;;17.44;73.63
52923;BME280;38796;42.702;23.306;2022-08-03T02:25:06;95262.56;;;17.37;73.83
52923;BME280;38796;42.702;23.306;2022-08-03T02:27:09;95261.94;;;17.35;74.05
52923;BME280;38796;42.702;23.306;2022-08-03T02:29:15;95258.78;;;17.31;74.30
52923;BME280;38796;42.702;23.306;2022-08-03T02:31:36;95265.63;;;17.25;74.25
52923;BME280;38796;42.702;23.306;2022-08-03T02:33:40;95255.69;;;17.19;73.42
52923;BME280;38796;42.702;23.306;2022-08-03T02:35:39;95262.56;;;17.37;72.62
52923;BME280;38796;42.702;23.306;2022-08-03T02:37:45;95261.94;;;17.35;72.22
52923;BME280;38796;42.702;23.306;2022-08-03T02:39:46;95256.22;;;17.38;72.12
52923;BME280;38796;42.702;23.306;2022-08-03T02:41:50;95268.22;;;17.42;72.01
52923;BME280;38796;42.702;23.306;2022-08-03T02:43:52;95266.88;;;17.38;71.98
52923;BME280;38796;42.702;23.306;2022-08-03T02:46:04;95258.78;;;17.31;71.97
52923;BME280;38796;42.702;23.306;2022-08-03T02:48:04;95263.03;;;17.17;72.48
52923;BME280;38796;42.702;23.306;2022-08-03T02:50:05;95262.78;;;17.27;72.28
52923;BME280;38796;42.702;23.306;2022-08-03T02:52:03;95261.66;;;17.21;72.33
52923;BME280;38796;42.702;23.306;2022-08-03T02:54:10;95263.03;;;17.17;72.62
52923;BME280;38796;42.702;23.306;2022-08-03T02:56:12;95262.56;;;17.14;72.57
52923;BME280;38796;42.702;23.306;2022-08-03T02:58:12;95265.56;;;17.11;73.10
52923;BME280;38796;42.702;23.306;2022-08-03T03:00:12;95263.28;;;16.99;73.44
52923;BME280;38796;42.702;23.306;2022-08-03T03:02:24;95267.03;;;17.13;73.13
52923;BME280;38796;42.702;23.306;2022-08-03T03:04:24;95264.81;;;17.25;72.62
52923;BME280;38796;42.702;23.306;2022-08-03T03:06:29;95272.94;;;17.32;72.08
52923;BME280;38796;42.702;23.306;2022-08-03T03:08:28;95273.22;;;17.37;71.86
52923;BME280;38796;42.702;23.306;2022-08-03T03:10:29;95273.75;;;17.32;72.09
52923;BME280;38796;42.702;23.306;2022-08-03T03:12:28;95280.28;;;17.21;72.42
52923;BME280;38796;42.702;23.306;2022-08-03T03:14:28;95280.44;;;17.28;72.28
52923;BME280;38796;42.702;23.306;2022-08-03T03:16:30;95284.28;;;17.48;71.61
52923;BME280;38796;42.702;23.306;2022-08-03T03:18:32;95284.19;;;17.42;71.97
52923;BME280;38796;42.702;23.306;2022-08-03T03:20:32;95289.06;;;17.30;72.64
52923;BME280;38796;42.702;23.306;2022-08-03T03:22:32;95286.25;;;17.23;73.06
52923;BME280;38796;42.702;23.306;2022-08-03T03:24:31;95290.94;;;17.21;73.23
52923;BME280;38796;42.702;23.306;2022-08-03T03:26:33;95294.47;;;17.14;73.58
52923;BME280;38796;42.702;23.306;2022-08-03T03:28:38;95290.63;;;17.16;73.48
52923;BME280;38796;42.702;23.306;2022-08-03T03:30:37;95294.00;;;17.10;73.55
52923;BME280;38796;42.702;23.306;2022-08-03T03:32:35;95294.34;;;17.07;73.63
52923;BME280;38796;42.702;23.306;2022-08-03T03:34:36;95300.97;;;17.11;73.16
52923;BME280;38796;42.702;23.306;2022-08-03T03:36:34;95300.19;;;17.02;73.50
52923;BME280;38796;42.702;23.306;2022-08-03T03:38:33;95303.00;;;17.01;73.89
52923;BME280;38796;42.702;23.306;2022-08-03T03:40:32;95307.00;;;16.97;74.19
52923;BME280;38796;42.702;23.306;2022-08-03T03:42:33;95307.19;;;16.95;74.20
52923;BME280;38796;42.702;23.306;2022-08-03T03:44:31;95306.72;;;16.92;74.36
52923;BME280;38796;42.702;23.306;2022-08-03T03:46:30;95307.53;;;16.92;74.26
52923;BME280;38796;42.702;23.306;2022-08-03T03:48:29;95311.78;;;17.10;73.89
52923;BME280;38796;42.702;23.306;2022-08-03T03:50:29;95307.28;;;17.41;72.84
52923;BME280;38796;42.702;23.306;2022-08-03T03:52:28;95297.59;;;17.80;71.24
52923;BME280;38796;42.702;23.306;2022-08-03T03:54:26;95311.22;;;18.22;69.83
52923;BME280;38796;42.702;23.306;2022-08-03T03:56:35;95311.31;;;18.29;69.04
52923;BME280;38796;42.702;23.306;2022-08-03T03:58:35;95315.97;;;18.65;68.19
52923;BME280;38796;42.702;23.306;2022-08-03T04:00:33;95311.28;;;19.26;65.87
52923;BME280;38796;42.702;23.306;2022-08-03T04:02:32;95305.19;;;19.68;64.29
52923;BME280;38796;42.702;23.306;2022-08-03T04:04:31;95299.91;;;19.97;63.40
52923;BME280;38796;42.702;23.306;2022-08-03T04:06:47;95300.06;;;20.59;60.97
52923;BME280;38796;42.702;23.306;2022-08-03T04:09:03;95301.56;;;21.03;59.42
52923;BME280;38796;42.702;23.306;2022-08-03T04:11:22;95300.97;;;21.15;59.22
52923;BME280;38796;42.702;23.306;2022-08-03T04:13:30;95295.06;;;21.26;58.68
52923;BME280;38796;42.702;23.306;2022-08-03T04:15:32;95292.22;;;21.34;58.30
52923;BME280;38796;42.702;23.306;2022-08-03T04:17:31;95302.88;;;21.75;57.36
52923;BME280;38796;42.702;23.306;2022-08-03T04:19:33;95299.03;;;22.24;56.09
52923;BME280;38796;42.702;23.306;2022-08-03T04:21:33;95296.16;;;22.52;55.07
52923;BME280;38796;42.702;23.306;2022-08-03T04:23:33;95301.09;;;22.49;54.76
52923;BME280;38796;42.702;23.306;2022-08-03T04:25:34;95297.00;;;22.26;55.52
52923;BME280;38796;42.702;23.306;2022-08-03T04:27:36;95303.94;;;21.94;56.38
52923;BME280;38796;42.702;23.306;2022-08-03T04:29:36;95298.75;;;21.79;56.67
52923;BME280;38796;42.702;23.306;2022-08-03T04:31:46;95302.16;;;22.15;55.94
52923;BME280;38796;42.702;23.306;2022-08-03T04:33:45;95299.41;;;21.95;56.11
52923;BME280;38796;42.702;23.306;2022-08-03T04:35:45;95302.53;;;22.12;56.13
52923;BME280;38796;42.702;23.306;2022-08-03T04:38:01;95302.28;;;21.87;56.91
52923;BME280;38796;42.702;23.306;2022-08-03T04:40:01;95305.25;;;22.45;55.60
52923;BME280;38796;42.702;23.306;2022-08-03T04:42:03;95312.47;;;22.44;54.94
52923;BME280;38796;42.702;23.306;2022-08-03T04:44:05;95318.44;;;22.79;54.05
52923;BME280;38796;42.702;23.306;2022-08-03T04:46:06;95318.84;;;22.50;55.01
52923;BME280;38796;42.702;23.306;2022-08-03T04:48:06;95315.97;;;22.45;55.17
52923;BME280;38796;42.702;23.306;2022-08-03T04:50:06;95319.28;;;22.40;55.25
52923;BME280;38796;42.702;23.306;2022-08-03T04:52:10;95308.81;;;21.57;57.13
52923;BME280;38796;42.702;23.306;2022-08-03T04:54:11;95324.31;;;21.89;56.88
52923;BME280;38796;42.702;23.306;2022-08-03T04:56:10;95327.88;;;22.02;56.57
52923;BME280;38796;42.702;23.306;2022-08-03T04:58:08;95318.66;;;22.51;55.24
52923;BME280;38796;42.702;23.306;2022-08-03T05:00:07;95333.50;;;22.74;54.76
52923;BME280;38796;42.702;23.306;2022-08-03T05:02:06;95333.66;;;22.86;54.41
52923;BME280;38796;42.702;23.306;2022-08-03T05:04:06;95321.28;;;22.91;53.89
52923;BME280;38796;42.702;23.306;2022-08-03T05:06:04;95334.50;;;22.86;53.93
52923;BME280;38796;42.702;23.306;2022-08-03T05:08:07;95331.22;;;22.84;53.55
52923;BME280;38796;42.702;23.306;2022-08-03T05:10:08;95333.28;;;23.02;53.38
52923;BME280;38796;42.702;23.306;2022-08-03T05:12:12;95328.13;;;22.87;53.83
52923;BME280;38796;42.702;23.306;2022-08-03T05:14:10;95335.72;;;23.17;52.92
52923;BME280;38796;42.702;23.306;2022-08-03T05:16:09;95337.81;;;23.01;53.25
52923;BME280;38796;42.702;23.306;2022-08-03T05:20:11;95344.22;;;22.27;55.15
52923;BME280;38796;42.702;23.306;2022-08-03T05:22:13;95348.78;;;22.47;55.38
52923;BME280;38796;42.702;23.306;2022-08-03T05:24:12;95352.09;;;22.69;54.30
52923;BME280;38796;42.702;23.306;2022-08-03T05:26:11;95350.44;;;22.61;55.02
52923;BME280;38796;42.702;23.306;2022-08-03T05:28:09;95349.00;;;22.59;55.50
52923;BME280;38796;42.702;23.306;2022-08-03T05:30:08;95347.09;;;22.79;54.63
52923;BME280;38796;42.702;23.306;2022-08-03T05:32:27;95351.03;;;22.83;54.62
52923;BME280;38796;42.702;23.306;2022-08-03T05:34:25;95352.88;;;23.02;54.20
52923;BME280;38796;42.702;23.306;2022-08-03T05:36:25;95353.72;;;22.96;54.32
52923;BME280;38796;42.702;23.306;2022-08-03T05:38:23;95359.50;;;23.00;54.45
52923;BME280;38796;42.702;23.306;2022-08-03T05:40:24;95350.03;;;22.97;54.54
52923;BME280;38796;42.702;23.306;2022-08-03T05:42:23;95351.03;;;23.10;53.89
52923;BME280;38796;42.702;23.306;2022-08-03T05:44:21;95367.53;;;23.20;53.12
52923;BME280;38796;42.702;23.306;2022-08-03T05:46:21;95363.59;;;23.22;53.18
52923;BME280;38796;42.702;23.306;2022-08-03T05:48:20;95361.88;;;23.41;52.36
52923;BME280;38796;42.702;23.306;2022-08-03T05:50:18;95361.97;;;23.08;53.12
52923;BME280;38796;42.702;23.306;2022-08-03T05:52:18;95360.19;;;23.54;52.09
52923;BME280;38796;42.702;23.306;2022-08-03T05:54:17;95367.06;;;23.36;53.05
52923;BME280;38796;42.702;23.306;2022-08-03T05:56:15;95358.53;;;23.59;52.06
52923;BME280;38796;42.702;23.306;2022-08-03T05:58:14;95360.00;;;23.48;52.29
52923;BME280;38796;42.702;23.306;2022-08-03T06:00:13;95360.78;;;23.62;52.24
52923;BME280;38796;42.702;23.306;2022-08-03T06:02:11;95362.44;;;23.57;52.15
52923;BME280;38796;42.702;23.306;2022-08-03T06:04:10;95360.72;;;24.20;50.26
52923;BME280;38796;42.702;23.306;2022-08-03T06:06:08;95354.00;;;24.30;49.79
52923;BME280;38796;42.702;23.306;2022-08-03T06:08:08;95357.66;;;25.17;47.58
52923;BME280;38796;42.702;23.306;2022-08-03T06:10:11;95361.75;;;24.76;48.61
52923;BME280;38796;42.702;23.306;2022-08-03T06:12:29;95374.88;;;24.03;49.79
52923;BME280;38796;42.702;23.306;2022-08-03T06:14:31;95360.31;;;24.17;50.43
52923;BME280;38796;42.702;23.306;2022-08-03T06:16:30;95365.53;;;24.43;49.39
52923;BME280;38796;42.702;23.306;2022-08-03T06:18:29;95369.13;;;24.87;48.14
52923;BME280;38796;42.702;23.306;2022-08-03T06:20:28;95361.97;;;25.00;47.81
52923;BME280;38796;42.702;23.306;2022-08-03T06:22:26;95357.56;;;24.80;49.06
52923;BME280;38796;42.702;23.306;2022-08-03T06:24:27;95366.25;;;23.87;50.62
52923;BME280;38796;42.702;23.306;2022-08-03T06:26:26;95367.91;;;24.27;50.82
52923;BME280;38796;42.702;23.306;2022-08-03T06:28:25;95367.19;;;24.44;50.20
52923;BME280;38796;42.702;23.306;2022-08-03T06:30:43;95370.91;;;24.43;49.87
52923;BME280;38796;42.702;23.306;2022-08-03T06:32:45;95362.31;;;24.60;49.74
52923;BME280;38796;42.702;23.306;2022-08-03T06:34:48;95368.34;;;24.80;49.08
52923;BME280;38796;42.702;23.306;2022-08-03T06:36:47;95365.44;;;24.82;48.23
52923;BME280;38796;42.702;23.306;2022-08-03T06:38:48;95363.75;;;24.31;50.26
52923;BME280;38796;42.702;23.306;2022-08-03T06:40:48;95360.06;;;24.57;49.93
52923;BME280;38796;42.702;23.306;2022-08-03T06:42:46;95365.94;;;24.72;49.17
52923;BME280;38796;42.702;23.306;2022-08-03T06:44:46;95366.75;;;24.73;48.73
52923;BME280;38796;42.702;23.306;2022-08-03T06:46:44;95356.47;;;24.63;49.08
52923;BME280;38796;42.702;23.306;2022-08-03T06:48:43;95359.00;;;24.83;49.06
52923;BME280;38796;42.702;23.306;2022-08-03T06:50:41;95357.66;;;25.17;47.85
52923;BME280;38796;42.702;23.306;2022-08-03T06:52:40;95354.16;;;25.35;46.95
52923;BME280;38796;42.702;23.306;2022-08-03T06:54:39;95352.97;;;25.12;48.14
52923;BME280;38796;42.702;23.306;2022-08-03T06:56:38;95357.53;;;25.30;47.49
52923;BME280;38796;42.702;23.306;2022-08-03T06:58:37;95360.16;;;25.19;47.66
52923;BME280;38796;42.702;23.306;2022-08-03T07:00:35;95363.63;;;24.51;48.83
52923;BME280;38796;42.702;23.306;2022-08-03T07:02:34;95354.06;;;24.80;49.27
52923;BME280;38796;42.702;23.306;2022-08-03T07:04:32;95351.03;;;24.94;48.07
52923;BME280;38796;42.702;23.306;2022-08-03T07:06:30;95351.94;;;25.32;47.96
52923;BME280;38796;42.702;23.306;2022-08-03T07:08:29;95346.16;;;25.47;47.05
52923;BME280;38796;42.702;23.306;2022-08-03T07:10:29;95350.06;;;25.32;47.51
52923;BME280;38796;42.702;23.306;2022-08-03T07:12:30;95341.13;;;25.87;46.20
52923;BME280;38796;42.702;23.306;2022-08-03T07:14:29;95344.78;;;26.23;45.37
52923;BME280;38796;42.702;23.306;2022-08-03T07:16:27;95354.75;;;26.22;44.99
52923;BME280;38796;42.702;23.306;2022-08-03T07:18:26;95352.28;;;25.91;45.50
52923;BME280;38796;42.702;23.306;2022-08-03T07:20:25;95354.06;;;25.78;46.31
52923;BME280;38796;42.702;23.306;2022-08-03T07:22:28;95354.75;;;25.92;46.43
52923;BME280;38796;42.702;23.306;2022-08-03T07:24:26;95348.97;;;25.88;45.52
52923;BME280;38796;42.702;23.306;2022-08-03T07:26:25;95359.94;;;25.94;45.07
52923;BME280;38796;42.702;23.306;2022-08-03T07:28:24;95356.44;;;26.05;44.87
52923;BME280;38796;42.702;23.306;2022-08-03T07:30:23;95355.31;;;26.12;44.04
52923;BME280;38796;42.702;23.306;2022-08-03T07:32:22;95360.34;;;26.09;44.67
52923;BME280;38796;42.702;23.306;2022-08-03T07:34:20;95353.94;;;26.52;44.50
52923;BME280;38796;42.702;23.306;2022-08-03T07:36:19;95354.69;;;26.41;44.28
52923;BME280;38796;42.702;23.306;2022-08-03T07:38:17;95359.94;;;26.77;43.37
52923;BME280;38796;42.702;23.306;2022-08-03T07:40:17;95355.16;;;27.15;42.62
52923;BME280;38796;42.702;23.306;2022-08-03T07:42:15;95350.91;;;27.07;42.51
52923;BME280;38796;42.702;23.306;2022-08-03T07:44:18;95354.06;;;27.04;42.70
52923;BME280;38796;42.702;23.306;2022-08-03T07:46:16;95352.31;;;27.33;41.66
52923;BME280;38796;42.702;23.306;2022-08-03T07:48:14;95350.69;;;27.32;42.21
52923;BME280;38796;42.702;23.306;2022-08-03T07:50:13;95344.72;;;27.18;41.52
52923;BME280;38796;42.702;23.306;2022-08-03T07:52:11;95353.88;;;27.29;41.31
52923;BME280;38796;42.702;23.306;2022-08-03T07:54:27;95352.41;;;28.02;39.58
52923;BME280;38796;42.702;23.306;2022-08-03T07:56:26;95359.03;;;28.23;38.63
52923;BME280;38796;42.702;23.306;2022-08-03T07:58:24;95353.16;;;28.71;37.56
52923;BME280;38796;42.702;23.306;2022-08-03T08:00:24;95352.75;;;28.80;37.53
52923;BME280;38796;42.702;23.306;2022-08-03T08:02:22;95352.25;;;27.68;39.75
52923;BME280;38796;42.702;23.306;2022-08-03T08:04:20;95353.78;;;27.12;41.43
52923;BME280;38796;42.702;23.306;2022-08-03T08:06:19;95351.84;;;27.36;40.55
52923;BME280;38796;42.702;23.306;2022-08-03T08:08:18;95361.22;;;27.81;39.87
52923;BME280;38796;42.702;23.306;2022-08-03T08:10:16;95358.50;;;28.09;38.33
52923;BME280;38796;42.702;23.306;2022-08-03T08:12:14;95360.19;;;28.27;37.55
52923;BME280;38796;42.702;23.306;2022-08-03T08:14:14;95356.19;;;28.58;37.19
52923;BME280;38796;42.702;23.306;2022-08-03T08:16:13;95364.16;;;28.82;37.70
52923;BME280;38796;42.702;23.306;2022-08-03T08:18:12;95359.91;;;29.58;36.52
52923;BME280;38796;42.702;23.306;2022-08-03T08:20:14;95353.59;;;30.46;34.29
52923;BME280;38796;42.702;23.306;2022-08-03T08:22:23;95358.66;;;30.64;33.76
52923;BME280;38796;42.702;23.306;2022-08-03T08:24:26;95358.00;;;30.25;33.51
52923;BME280;38796;42.702;23.306;2022-08-03T08:26:27;95353.69;;;30.29;34.51
52923;BME280;38796;42.702;23.306;2022-08-03T08:28:25;95362.69;;;29.85;34.90
52923;BME280;38796;42.702;23.306;2022-08-03T08:30:30;95355.84;;;30.81;33.60
52923;BME280;38796;42.702;23.306;2022-08-03T08:32:30;95350.06;;;31.47;32.50
52923;BME280;38796;42.702;23.306;2022-08-03T08:34:28;95345.13;;;30.69;34.01
52923;BME280;38796;42.702;23.306;2022-08-03T08:36:28;95348.81;;;31.70;32.37
52923;BME280;38796;42.702;23.306;2022-08-03T08:38:26;95344.38;;;30.20;34.38
52923;BME280;38796;42.702;23.306;2022-08-03T08:40:26;95347.72;;;30.05;34.96
52923;BME280;38796;42.702;23.306;2022-08-03T08:42:25;95344.41;;;31.58;33.01
52923;BME280;38796;42.702;23.306;2022-08-03T08:44:23;95346.59;;;32.24;31.25
52923;BME280;38796;42.702;23.306;2022-08-03T08:46:22;95336.56;;;32.45;30.79
52923;BME280;38796;42.702;23.306;2022-08-03T08:48:24;95347.50;;;32.81;29.67
52923;BME280;38796;42.702;23.306;2022-08-03T08:50:23;95334.69;;;33.28;28.74
52923;BME280;38796;42.702;23.306;2022-08-03T08:52:24;95344.06;;;33.91;28.57
52923;BME280;38796;42.702;23.306;2022-08-03T08:54:28;95338.66;;;33.81;29.01
52923;BME280;38796;42.702;23.306;2022-08-03T08:56:30;95336.38;;;34.09;27.96
52923;BME280;38796;42.702;23.306;2022-08-03T08:58:33;95334.41;;;34.19;26.97
52923;BME280;38796;42.702;23.306;2022-08-03T09:00:32;95334.34;;;33.65;28.47
52923;BME280;38796;42.702;23.306;2022-08-03T09:02:30;95333.88;;;32.91;27.91
52923;BME280;38796;42.702;23.306;2022-08-03T09:04:30;95332.50;;;34.15;28.10
52923;BME280;38796;42.702;23.306;2022-08-03T09:06:30;95325.53;;;35.41;25.91
52923;BME280;38796;42.702;23.306;2022-08-03T09:08:31;95321.03;;;34.97;26.87
52923;BME280;38796;42.702;23.306;2022-08-03T09:10:29;95327.22;;;35.36;25.70
52923;BME280;38796;42.702;23.306;2022-08-03T09:12:28;95323.00;;;35.73;25.43
52923;BME280;38796;42.702;23.306;2022-08-03T09:14:38;95323.50;;;36.99;24.05
52923;BME280;38796;42.702;23.306;2022-08-03T09:16:57;95322.94;;;37.90;22.52
52923;BME280;38796;42.702;23.306;2022-08-03T09:19:10;95318.63;;;38.11;22.71
52923;BME280;38796;42.702;23.306;2022-08-03T09:21:19;95319.19;;;38.86;21.42
52923;BME280;38796;42.702;23.306;2022-08-03T09:23:43;95319.44;;;38.62;20.73
52923;BME280;38796;42.702;23.306;2022-08-03T09:25:59;95323.03;;;36.92;23.63
52923;BME280;38796;42.702;23.306;2022-08-03T09:28:08;95316.00;;;36.10;24.40
52923;BME280;38796;42.702;23.306;2022-08-03T09:30:12;95323.75;;;36.65;24.04
52923;BME280;38796;42.702;23.306;2022-08-03T09:32:30;95315.06;;;36.76;23.70
52923;BME280;38796;42.702;23.306;2022-08-03T09:34:30;95323.91;;;37.06;23.24
52923;BME280;38796;42.702;23.306;2022-08-03T09:36:41;95319.00;;;38.32;21.65
52923;BME280;38796;42.702;23.306;2022-08-03T09:38:40;95311.88;;;38.81;21.10
52923;BME280;38796;42.702;23.306;2022-08-03T09:40:39;95312.56;;;38.73;20.94
52923;BME280;38796;42.702;23.306;2022-08-03T09:42:54;95310.59;;;38.01;22.03
52923;BME280;38796;42.702;23.306;2022-08-03T09:44:53;95321.41;;;37.70;22.18
52923;BME280;38796;42.702;23.306;2022-08-03T09:46:53;95318.25;;;38.77;20.94
52923;BME280;38796;42.702;23.306;2022-08-03T09:48:52;95321.63;;;38.51;21.24
52923;BME280;38796;42.702;23.306;2022-08-03T09:50:52;95319.63;;;38.29;20.89
52923;BME280;38796;42.702;23.306;2022-08-03T09:53:00;95319.75;;;38.38;21.09
52923;BME280;38796;42.702;23.306;2022-08-03T09:55:00;95317.97;;;36.66;22.79
52923;BME280;38796;42.702;23.306;2022-08-03T09:56:58;95312.63;;;36.56;22.74
52923;BME280;38796;42.702;23.306;2022-08-03T09:58:57;95313.75;;;36.55;22.86
52923;BME280;38796;42.702;23.306;2022-08-03T10:00:57;95314.31;;;36.14;23.73
52923;BME280;38796;42.702;23.306;2022-08-03T10:03:03;95319.72;;;36.19;23.47
52923;BME280;38796;42.702;23.306;2022-08-03T10:05:02;95310.78;;;37.03;23.08
52923;BME280;38796;42.702;23.306;2022-08-03T10:07:03;95303.91;;;37.66;21.92
52923;BME280;38796;42.702;23.306;2022-08-03T10:09:08;95298.22;;;38.40;21.18
52923;BME280;38796;42.702;23.306;2022-08-03T10:11:06;95306.13;;;37.03;22.34
52923;BME280;38796;42.702;23.306;2022-08-03T10:13:05;95298.59;;;36.20;23.58
52923;BME280;38796;42.702;23.306;2022-08-03T10:15:07;95298.47;;;36.49;22.99
52923;BME280;38796;42.702;23.306;2022-08-03T10:17:26;95302.19;;;36.91;22.75
52923;BME280;38796;42.702;23.306;2022-08-03T10:19:24;95290.03;;;37.57;21.79
52923;BME280;38796;42.702;23.306;2022-08-03T10:21:22;95296.94;;;38.60;21.39
52923;BME280;38796;42.702;23.306;2022-08-03T10:23:21;95292.81;;;38.49;21.49
52923;BME280;38796;42.702;23.306;2022-08-03T10:25:23;95290.56;;;37.45;22.87
52923;BME280;38796;42.702;23.306;2022-08-03T10:27:32;95292.59;;;36.74;23.13
52923;BME280;38796;42.702;23.306;2022-08-03T10:29:36;95293.97;;;35.24;24.86
52923;BME280;38796;42.702;23.306;2022-08-03T10:31:38;95294.50;;;33.59;26.68
52923;BME280;38796;42.702;23.306;2022-08-03T10:33:56;95286.88;;;33.56;26.72
52923;BME280;38796;42.702;23.306;2022-08-03T10:35:56;95286.88;;;33.45;27.32
52923;BME280;38796;42.702;23.306;2022-08-03T10:37:59;95285.84;;;33.36;27.66
52923;BME280;38796;42.702;23.306;2022-08-03T10:39:59;95286.94;;;34.05;26.81